createdAt,value
2018-01-17T00:00:38.402Z,31.33
2018-01-17T00:03:04.577Z,25.60
2018-01-17T00:05:30.730Z,25.67
2018-01-17T00:08:00.742Z,27.20
2018-01-17T00:10:27.003Z,30.63
2018-01-17T00:12:53.106Z,29.60
2018-01-17T00:15:19.256Z,28.90
2018-01-17T00:17:53.509Z,26.00
2018-01-17T00:20:19.703Z,24.37
2018-01-17T00:22:45.907Z,24.37
2018-01-17T00:25:12.038Z,24.23
2018-01-17T00:27:48.146Z,22.40
2018-01-17T00:30:14.402Z,23.30
2018-01-17T00:32:40.582Z,23.40
2018-01-17T00:35:06.846Z,27.53
2018-01-17T00:37:36.461Z,24.67
2018-01-17T00:40:02.679Z,25.80
2018-01-17T00:42:28.852Z,26.63
2018-01-17T00:44:54.979Z,25.70
2018-01-17T00:50:20.435Z,28.63
2018-01-17T00:52:46.669Z,28.13
2018-01-17T00:55:12.700Z,33.40
2018-01-17T00:57:51.611Z,35.97
2018-01-17T01:00:17.762Z,40.60
2018-01-17T01:02:44.105Z,38.87
2018-01-17T01:05:10.255Z,41.23
2018-01-17T01:07:43.801Z,34.60
2018-01-17T01:10:09.846Z,34.50
2018-01-17T01:12:35.945Z,39.43
2018-01-17T01:15:02.117Z,40.33
2018-01-17T01:20:31.076Z,36.93
2018-01-17T01:22:57.278Z,45.43
2018-01-17T01:25:23.389Z,43.77
2018-01-17T01:28:09.014Z,41.43
2018-01-17T01:30:35.254Z,41.70
2018-01-17T01:33:01.430Z,39.53
2018-01-17T01:35:27.678Z,42.40
2018-01-17T01:40:48.952Z,40.43
2018-01-17T01:43:15.153Z,41.00
2018-01-17T01:45:41.321Z,40.53
2018-01-17T01:48:11.194Z,38.23
2018-01-17T01:50:37.337Z,42.03
2018-01-17T01:53:03.502Z,39.67
2018-01-17T01:55:29.738Z,39.53
2018-01-17T01:58:14.122Z,45.33
2018-01-17T02:00:40.111Z,42.90
2018-01-17T02:03:06.346Z,40.37
2018-01-17T02:05:32.447Z,42.40
2018-01-17T02:08:11.240Z,44.20
2018-01-17T02:10:37.457Z,42.33
2018-01-17T02:13:03.611Z,40.13
2018-01-17T02:15:29.879Z,38.03
2018-01-17T02:20:56.402Z,36.60
2018-01-17T02:23:22.613Z,33.00
2018-01-17T02:25:48.817Z,30.50
2018-01-17T02:28:23.466Z,28.37
2018-01-17T02:30:49.638Z,28.13
2018-01-17T02:33:15.742Z,27.70
2018-01-17T02:35:41.978Z,26.43
2018-01-17T02:38:09.218Z,25.70
2018-01-17T02:40:39.254Z,24.93
2018-01-17T02:43:05.439Z,22.87
2018-01-17T02:45:31.675Z,24.20
2018-01-17T02:47:57.956Z,21.20
2018-01-17T02:50:24.199Z,22.03
2018-01-17T02:52:50.418Z,39.17
2018-01-17T02:55:16.687Z,28.90
2018-01-17T02:57:42.878Z,26.30
2018-01-17T03:00:09.051Z,18.77
2018-01-17T03:02:35.303Z,38.50
2018-01-17T03:05:01.531Z,27.17
2018-01-17T03:07:31.447Z,20.93
2018-01-17T03:09:58.063Z,49.67
2018-01-17T03:12:24.213Z,63.20
2018-01-17T03:14:50.474Z,40.33
2018-01-17T03:17:16.773Z,28.53
2018-01-17T03:19:42.941Z,36.50
2018-01-17T03:22:09.098Z,47.40
2018-01-17T03:24:35.282Z,24.97
2018-01-17T03:27:05.379Z,19.20
2018-01-17T03:29:31.622Z,20.83
2018-01-17T03:31:57.874Z,25.23
2018-01-17T03:34:24.118Z,24.73
2018-01-17T03:36:50.238Z,21.60
2018-01-17T03:39:16.334Z,22.73
2018-01-17T03:41:42.629Z,30.20
2018-01-17T03:44:08.874Z,22.37
2018-01-17T03:46:36.062Z,19.30
2018-01-17T03:49:02.267Z,18.83
2018-01-17T03:51:28.406Z,21.00
2018-01-17T03:53:56.198Z,25.43
2018-01-17T03:56:22.338Z,27.67
2018-01-17T03:58:48.470Z,30.27
2018-01-17T04:01:14.730Z,28.20
2018-01-17T04:03:40.829Z,24.40
2018-01-17T04:06:07.050Z,27.53
2018-01-17T04:08:36.366Z,34.40
2018-01-17T04:11:02.594Z,28.37
2018-01-17T04:13:28.842Z,20.47
2018-01-17T04:15:54.951Z,28.97
2018-01-17T04:18:38.618Z,30.30
2018-01-17T04:21:04.810Z,20.93
2018-01-17T04:23:31.018Z,23.53
2018-01-17T04:25:57.386Z,27.67
2018-01-17T04:28:23.598Z,25.47
2018-01-17T04:30:49.781Z,24.23
2018-01-17T04:33:15.919Z,25.80
2018-01-17T04:35:42.141Z,29.27
2018-01-17T04:49:17.762Z,26.20
2018-01-17T04:51:43.909Z,21.90
2018-01-17T04:54:10.153Z,24.33
2018-01-17T04:56:50.429Z,21.87
2018-01-17T04:59:16.598Z,18.07
2018-01-17T05:01:42.872Z,24.53
2018-01-17T05:04:09.115Z,26.67
2018-01-17T05:12:07.282Z,23.70
2018-01-17T05:14:33.454Z,24.23
2018-01-17T05:22:34.278Z,21.30
2018-01-17T05:25:00.393Z,21.07
2018-01-17T05:27:39.266Z,23.80
2018-01-17T05:30:05.379Z,25.73
2018-01-17T05:32:31.658Z,23.10
2018-01-17T05:34:57.765Z,23.57
2018-01-17T05:37:27.657Z,27.60
2018-01-17T05:39:53.762Z,31.60
2018-01-17T05:42:20.057Z,22.23
2018-01-17T05:44:46.214Z,24.33
2018-01-17T05:50:09.629Z,23.77
2018-01-17T05:52:35.742Z,23.87
2018-01-17T05:55:02.914Z,33.30
2018-01-17T06:03:10.858Z,36.57
2018-01-17T06:05:37.053Z,25.47
2018-01-17T06:08:10.402Z,23.27
2018-01-17T06:10:36.574Z,23.87
2018-01-17T06:13:02.687Z,27.20
2018-01-17T06:15:28.874Z,25.83
2018-01-17T06:18:07.658Z,31.20
2018-01-17T06:20:33.893Z,34.93
2018-01-17T06:23:00.161Z,31.10
2018-01-17T06:25:26.354Z,36.10
2018-01-17T06:27:53.501Z,48.43
2018-01-17T06:30:19.881Z,56.57
2018-01-17T06:32:46.041Z,61.67
2018-01-17T06:35:12.234Z,57.97
2018-01-17T06:40:30.457Z,61.73
2018-01-17T06:42:56.647Z,58.27
2018-01-17T06:45:22.802Z,45.83
2018-01-17T06:50:41.977Z,34.70
2018-01-17T06:53:08.125Z,35.77
2018-01-17T06:55:34.242Z,34.43
2018-01-17T07:03:34.494Z,38.73
2018-01-17T07:06:03.781Z,45.77
2018-01-17T07:08:29.810Z,40.57
2018-01-17T07:10:56.063Z,51.60
2018-01-17T07:13:22.366Z,44.13
2018-01-17T07:15:48.491Z,39.00
2018-01-17T07:18:14.682Z,51.63
2018-01-17T07:20:40.846Z,43.23
2018-01-17T07:23:06.977Z,41.40
2018-01-17T07:25:33.257Z,41.57
2018-01-17T07:28:09.174Z,38.70
2018-01-17T07:30:35.314Z,32.77
2018-01-17T07:33:01.527Z,31.13
2018-01-17T07:35:27.766Z,30.23
2018-01-17T07:43:41.489Z,37.97
2018-01-17T07:46:11.216Z,33.67
2018-01-17T07:48:37.454Z,39.60
2018-01-17T07:51:03.686Z,46.50
2018-01-17T07:53:29.805Z,39.00
2018-01-17T08:04:12.674Z,28.03
2018-01-17T08:06:42.202Z,19.53
2018-01-17T08:09:08.423Z,17.97
2018-01-17T08:11:34.687Z,19.17
2018-01-17T08:14:00.838Z,21.33
2018-01-17T08:16:30.313Z,23.37
2018-01-17T08:18:56.583Z,30.10
2018-01-17T08:21:22.722Z,27.87
2018-01-17T08:23:48.962Z,25.97
2018-01-17T08:29:17.163Z,34.20
2018-01-17T08:31:43.430Z,31.10
2018-01-17T08:34:09.691Z,24.70
2018-01-17T08:42:07.594Z,19.73
2018-01-17T08:44:33.770Z,22.20
2018-01-17T08:47:10.759Z,16.27
2018-01-17T08:49:36.911Z,18.73
2018-01-17T08:52:03.174Z,18.53
2018-01-17T08:54:29.690Z,17.73
2018-01-17T08:57:14.510Z,17.50
2018-01-17T08:59:40.693Z,16.87
2018-01-17T09:02:06.841Z,16.60
2018-01-17T09:04:32.983Z,21.30
2018-01-17T09:09:51.761Z,17.57
2018-01-17T09:12:18.081Z,17.87
2018-01-17T09:14:44.247Z,16.33
2018-01-17T09:20:13.623Z,18.07
2018-01-17T09:22:39.854Z,16.30
2018-01-17T09:25:06.035Z,13.90
2018-01-17T09:27:45.578Z,14.10
2018-01-17T09:30:11.838Z,17.43
2018-01-17T09:32:37.982Z,15.67
2018-01-17T09:35:04.127Z,14.30
2018-01-17T09:43:12.050Z,13.33
2018-01-17T09:45:53.166Z,15.00
2018-01-17T09:48:19.430Z,31.60
2018-01-17T09:50:45.586Z,16.03
2018-01-17T09:53:11.702Z,14.53
2018-01-17T10:01:12.762Z,18.60
2018-01-17T10:03:39.042Z,26.27
2018-01-17T10:06:12.845Z,22.50
2018-01-17T10:08:38.946Z,26.17
2018-01-17T10:11:05.031Z,18.93
2018-01-17T10:13:31.134Z,18.63
2018-01-17T10:16:01.315Z,17.27
2018-01-17T10:18:27.550Z,18.93
2018-01-17T10:20:54.526Z,21.87
2018-01-17T10:23:20.746Z,18.43
2018-01-17T10:28:42.477Z,19.60
2018-01-17T10:31:08.673Z,21.70
2018-01-17T10:33:34.877Z,21.43
2018-01-17T10:44:22.346Z,15.57
2018-01-17T10:46:58.286Z,15.43
2018-01-17T10:49:24.450Z,19.57
2018-01-17T10:51:50.666Z,19.70
2018-01-17T10:54:16.914Z,19.97
2018-01-17T11:02:17.597Z,15.87
2018-01-17T11:04:43.857Z,16.73
2018-01-17T11:15:28.798Z,19.83
2018-01-17T11:17:54.916Z,20.90
2018-01-17T11:20:20.950Z,23.33
2018-01-17T11:22:47.365Z,32.37
2018-01-17T11:25:28.354Z,37.20
2018-01-17T11:27:54.546Z,36.27
2018-01-17T11:30:20.758Z,38.70
2018-01-17T11:32:47.038Z,35.33
2018-01-17T11:35:13.161Z,36.90
2018-01-17T11:37:39.329Z,30.70
2018-01-17T11:40:05.467Z,23.97
2018-01-17T11:42:31.697Z,25.97
2018-01-17T11:44:57.967Z,25.83
2018-01-17T11:47:34.738Z,22.57
2018-01-17T11:50:00.913Z,22.83
2018-01-17T11:52:27.114Z,23.47
2018-01-17T11:54:53.334Z,23.87
2018-01-17T11:57:19.543Z,25.33
2018-01-17T11:59:45.731Z,22.83
2018-01-17T12:02:11.968Z,24.30
2018-01-17T12:04:38.254Z,22.10
2018-01-17T12:07:07.667Z,24.13
2018-01-17T12:09:33.783Z,23.63
2018-01-17T12:12:00.024Z,27.53
2018-01-17T12:14:26.234Z,20.30
2018-01-17T12:22:41.361Z,15.83
2018-01-17T12:25:08.499Z,28.47
2018-01-17T12:27:34.614Z,21.03
2018-01-17T12:30:00.837Z,26.70
2018-01-17T12:32:26.997Z,27.00
2018-01-17T12:34:53.161Z,17.63
2018-01-17T12:37:25.653Z,12.27
2018-01-17T12:39:51.837Z,13.27
2018-01-17T12:42:18.039Z,16.67
2018-01-17T12:52:01.997Z,11.30
2018-01-17T12:54:28.234Z,7.13
2018-01-17T13:38:12.437Z,7.00
2018-01-17T13:40:38.685Z,6.80
2018-01-17T13:43:04.822Z,9.73
2018-01-17T14:02:02.394Z,19.47
2018-01-17T14:04:28.610Z,19.17
2018-01-17T14:50:58.670Z,33.63
2018-01-17T14:53:24.942Z,41.27
2018-01-17T14:58:50.499Z,44.10
2018-01-17T15:01:16.713Z,48.57
2018-01-17T15:03:42.801Z,46.43
2018-01-17T15:22:48.174Z,50.10
2018-01-17T15:33:44.270Z,28.60
2018-01-17T15:44:33.916Z,38.83
2018-01-17T15:47:00.648Z,28.63
2018-01-17T15:49:26.822Z,26.20
2018-01-17T15:51:53.085Z,25.33
2018-01-17T15:54:19.354Z,57.47
2018-01-17T16:16:02.924Z,54.20
2018-01-17T16:18:30.038Z,66.20
2018-01-17T16:20:56.269Z,74.13
2018-01-17T16:23:22.498Z,69.43
2018-01-17T16:34:18.300Z,20.37
2018-01-17T16:56:01.519Z,31.97
2018-01-17T16:58:27.702Z,31.63
2018-01-17T17:00:53.944Z,26.23
2018-01-17T17:03:20.081Z,23.10
2018-01-17T17:05:46.190Z,34.60
2018-01-17T17:08:12.277Z,52.07
2018-01-17T17:10:38.415Z,93.20
2018-01-17T17:13:04.533Z,54.57
2018-01-17T17:15:30.758Z,51.43
2018-01-17T17:17:56.923Z,50.27
2018-01-17T17:20:23.092Z,54.10
2018-01-17T17:22:49.335Z,47.70
2018-01-17T17:25:15.597Z,48.37
2018-01-17T17:27:41.811Z,44.13
2018-01-17T17:30:07.991Z,38.73
2018-01-17T17:32:34.209Z,33.03
2018-01-17T17:35:00.426Z,36.53
2018-01-17T17:37:26.641Z,39.87
2018-01-17T17:39:52.885Z,47.23
2018-01-17T17:42:18.998Z,39.07
2018-01-17T17:44:45.162Z,42.30
2018-01-17T17:47:11.322Z,38.67
2018-01-17T17:49:37.535Z,46.83
2018-01-17T17:52:03.690Z,48.23
2018-01-17T17:54:29.801Z,18.60
2018-01-17T17:56:55.947Z,29.67
2018-01-17T17:59:22.199Z,36.03
2018-01-17T18:01:48.390Z,21.27
2018-01-17T18:04:14.701Z,21.13
2018-01-17T18:06:40.771Z,23.47
2018-01-17T18:09:06.875Z,23.53
2018-01-17T18:11:33.135Z,44.33
2018-01-17T18:13:59.434Z,36.53
2018-01-17T18:16:25.690Z,42.23
2018-01-17T18:18:52.307Z,37.10
2018-01-17T18:21:18.462Z,28.90
2018-01-17T18:23:44.641Z,15.00
2018-01-17T18:26:10.861Z,19.00
2018-01-17T18:28:37.117Z,15.63
2018-01-17T18:31:03.394Z,15.03
2018-01-17T18:33:29.614Z,17.53
2018-01-17T18:35:56.065Z,22.30
2018-01-17T18:38:22.262Z,17.37
2018-01-17T18:40:48.431Z,17.60
2018-01-17T18:43:14.677Z,24.37
2018-01-17T18:45:40.906Z,25.50
2018-01-17T18:48:07.022Z,21.23
2018-01-17T18:50:33.337Z,22.40
2018-01-17T18:52:59.515Z,20.67
2018-01-17T18:55:25.531Z,24.57
2018-01-17T18:57:51.785Z,20.03
2018-01-17T19:00:17.930Z,27.43
2018-01-17T19:02:44.030Z,26.47
2018-01-17T19:05:10.173Z,42.10
2018-01-17T19:07:36.363Z,44.23
2018-01-17T19:10:02.576Z,42.77
2018-01-17T19:12:28.758Z,33.93
2018-01-17T19:14:55.006Z,36.63
2018-01-17T19:17:21.254Z,41.73
2018-01-17T19:19:47.403Z,50.33
2018-01-17T19:22:13.503Z,28.80
2018-01-17T19:24:40.639Z,37.60
2018-01-17T19:27:06.722Z,30.70
2018-01-17T19:29:32.982Z,18.37
2018-01-17T19:31:59.145Z,20.67
2018-01-17T19:34:26.310Z,21.77
2018-01-17T19:36:52.473Z,30.23
2018-01-17T19:39:18.686Z,27.60
2018-01-17T19:41:44.835Z,62.77
2018-01-17T19:44:12.004Z,37.03
2018-01-17T19:46:38.218Z,32.63
2018-01-17T19:49:04.344Z,13.70
2018-01-17T19:51:30.491Z,50.10
2018-01-17T19:53:56.622Z,26.77
2018-01-17T19:56:22.863Z,39.70
2018-01-17T19:58:49.078Z,39.27
2018-01-17T20:01:15.338Z,40.60
2018-01-17T20:03:41.545Z,49.70
2018-01-17T20:06:08.734Z,32.50
2018-01-17T20:08:34.755Z,28.70
2018-01-17T20:11:01.007Z,25.53
2018-01-17T20:13:27.246Z,23.60
2018-01-17T20:15:54.443Z,25.50
2018-01-17T20:18:20.605Z,16.77
2018-01-17T20:20:46.686Z,12.17
2018-01-17T20:23:12.773Z,14.07
2018-01-17T20:28:48.507Z,12.80
2018-01-17T20:31:14.584Z,14.27
2018-01-17T20:33:40.830Z,13.50
2018-01-17T20:36:06.958Z,13.27
2018-01-17T20:38:33.131Z,14.07
2018-01-17T20:40:59.434Z,16.47
2018-01-17T20:43:25.570Z,28.80
2018-01-17T20:46:10.975Z,20.07
2018-01-17T20:48:37.154Z,22.20
2018-01-17T20:51:03.366Z,14.33
2018-01-17T20:53:29.620Z,12.87
2018-01-17T20:56:14.051Z,11.17
2018-01-17T21:01:18.065Z,13.30
2018-01-17T21:03:44.399Z,12.97
2018-01-17T21:09:10.410Z,11.60
2018-01-17T21:11:36.427Z,34.07
2018-01-17T21:16:48.247Z,9.23
2018-01-17T21:21:52.695Z,13.47
2018-01-17T21:27:04.030Z,12.17
2018-01-17T21:29:30.214Z,25.97
2018-01-17T21:31:57.050Z,22.67
2018-01-17T21:37:09.029Z,13.73
2018-01-17T21:39:35.153Z,23.23
2018-01-17T21:42:01.863Z,22.83
2018-01-17T21:49:58.993Z,15.40
2018-01-17T21:52:25.130Z,12.67
2018-01-17T21:54:54.586Z,13.95
2018-01-17T21:57:20.760Z,18.00
2018-01-17T21:59:47.089Z,11.57
2018-01-17T22:02:13.197Z,11.87
2018-01-17T22:04:42.554Z,13.00
2018-01-17T22:07:08.914Z,14.03
2018-01-17T22:09:35.014Z,12.87
2018-01-17T22:12:01.202Z,73.33
2018-01-17T22:14:27.706Z,95.73
2018-01-17T22:16:53.793Z,83.17
2018-01-17T22:19:20.010Z,112.57
2018-01-17T22:21:46.083Z,75.27
2018-01-17T22:24:12.402Z,48.40
2018-01-17T22:26:38.646Z,45.53
2018-01-17T22:29:04.929Z,35.63
2018-01-17T22:31:31.117Z,17.50
2018-01-17T22:34:00.226Z,14.30
2018-01-17T22:36:26.290Z,23.30
2018-01-17T22:38:52.554Z,21.77
2018-01-17T22:41:18.705Z,26.73
2018-01-17T22:43:44.892Z,9.73
2018-01-17T22:46:11.061Z,8.10
2018-01-17T22:48:37.755Z,7.40
2018-01-17T22:51:03.850Z,5.97
2018-01-17T22:53:30.062Z,8.30
2018-01-17T22:55:56.374Z,9.10
2018-01-17T22:58:22.785Z,11.43
2018-01-17T23:00:48.921Z,11.20
2018-01-17T23:03:15.029Z,12.93
2018-01-17T23:05:46.279Z,13.27
2018-01-17T23:08:12.529Z,13.83
2018-01-17T23:10:38.789Z,12.80
2018-01-17T23:13:04.950Z,11.87
2018-01-17T23:15:35.062Z,10.80
2018-01-17T23:18:01.306Z,11.20
2018-01-17T23:20:27.605Z,9.60
2018-01-17T23:22:53.751Z,10.03
2018-01-17T23:25:19.909Z,9.67
2018-01-17T23:27:46.166Z,11.40
2018-01-17T23:30:12.389Z,10.93
2018-01-17T23:32:38.478Z,10.77
2018-01-17T23:35:05.827Z,9.60
2018-01-17T23:37:31.981Z,10.93
2018-01-17T23:39:58.077Z,11.30
2018-01-17T23:42:24.333Z,10.27
2018-01-17T23:44:51.673Z,12.27
2018-01-17T23:47:17.961Z,12.20
2018-01-17T23:49:44.173Z,10.40
2018-01-17T23:52:10.266Z,11.50
2018-01-17T23:54:37.606Z,10.43
2018-01-17T23:57:03.730Z,9.77
2018-01-17T23:59:29.981Z,9.23
